Time;durP1;ratioP1;P1;durP2;ratioP2;P2;SDS_P1;SDS_P2;PMS_P1;PMS_P2;Temp;Humidity;BMP_temperature;BMP_pressure;BME280_temperature;BME280_humidity;BME280_pressure;Samples;Min_cycle;Max_cycle;Signal;HPM_P1;HPM_P2
2021/12/30 00:02:16;;;;;;;1.58;0.90;;;7.90;99.90;;;;;;5122014;27;20122;-74
2021/12/30 00:04:42;;;;;;;2.13;0.82;;;7.80;99.90;;;;;;5127194;27;20031;-74
2021/12/30 00:07:09;;;;;;;2.58;1.00;;;8.20;99.90;;;;;;5124905;27;20030;-74
2021/12/30 00:09:39;;;;;;;1.67;0.77;;;8.10;99.90;;;;;;5127162;27;20100;-74
2021/12/30 00:12:05;;;;;;;2.90;1.00;;;8.00;99.90;;;;;;5126724;27;20027;-74
2021/12/30 00:14:32;;;;;;;2.97;0.80;;;8.20;99.90;;;;;;5127941;27;20049;-74
2021/12/30 00:16:58;;;;;;;1.65;0.88;;;8.30;99.90;;;;;;5113505;27;20719;-74
2021/12/30 00:19:23;;;;;;;1.70;0.85;;;8.20;99.90;;;;;;5124863;27;20102;-74
2021/12/30 00:21:49;;;;;;;2.05;0.93;;;8.20;99.90;;;;;;5124681;27;20590;-74
2021/12/30 00:24:16;;;;;;;2.60;0.98;;;8.20;99.90;;;;;;5123699;27;20079;-74
2021/12/30 00:26:41;;;;;;;1.35;0.57;;;8.10;99.90;;;;;;5120191;27;20023;-74
2021/12/30 00:29:07;;;;;;;1.63;0.68;;;8.30;99.90;;;;;;5127450;27;20069;-74
2021/12/30 00:31:34;;;;;;;2.42;0.85;;;8.40;99.90;;;;;;5127953;28;20527;-74
2021/12/30 00:34:00;;;;;;;2.05;0.95;;;8.40;99.90;;;;;;5127705;28;20613;-74
2021/12/30 00:36:25;;;;;;;2.28;1.17;;;8.10;99.90;;;;;;5125435;28;20035;-74
2021/12/30 00:38:52;;;;;;;2.70;1.05;;;8.10;99.90;;;;;;5120641;28;20023;-74
2021/12/30 00:41:19;;;;;;;2.72;1.38;;;8.00;99.90;;;;;;5117980;28;20033;-74
2021/12/30 00:43:45;;;;;;;1.35;0.70;;;7.90;99.90;;;;;;5127332;28;20023;-74
2021/12/30 00:46:11;;;;;;;2.10;1.02;;;7.70;99.90;;;;;;5126030;28;20035;-74
2021/12/30 00:48:38;;;;;;;1.88;0.80;;;7.90;99.90;;;;;;5123850;28;20107;-74
2021/12/30 00:51:05;;;;;;;2.72;1.48;;;7.80;99.90;;;;;;5125555;28;20063;-74
2021/12/30 00:53:30;;;;;;;1.58;0.80;;;7.70;99.90;;;;;;5126013;28;20031;-74
2021/12/30 00:55:56;;;;;;;1.95;0.95;;;7.70;99.90;;;;;;5125714;28;20031;-74
2021/12/30 00:58:22;;;;;;;3.55;1.50;;;7.70;99.90;;;;;;5124172;28;20038;-74
2021/12/30 01:00:48;;;;;;;2.97;1.00;;;7.60;99.90;;;;;;5125726;28;20030;-74
2021/12/30 01:03:16;;;;;;;2.75;1.13;;;7.50;99.90;;;;;;5116253;28;20088;-74
2021/12/30 01:05:43;;;;;;;1.98;1.00;;;7.50;99.90;;;;;;5125874;28;20051;-74
2021/12/30 01:08:09;;;;;;;1.75;0.95;;;7.40;99.90;;;;;;5126278;27;20091;-74
2021/12/30 01:10:36;;;;;;;3.53;1.20;;;7.50;99.90;;;;;;5125733;27;20550;-74
2021/12/30 01:13:06;;;;;;;2.72;1.17;;;7.70;99.90;;;;;;5131359;27;20497;-74
2021/12/30 01:15:45;;;;;;;2.10;1.00;;;7.80;99.90;;;;;;5126531;27;20567;-74
2021/12/30 01:20:48;;;;;;;1.83;0.90;;;8.00;99.90;;;;;;5125377;27;20035;-74
2021/12/30 01:23:14;;;;;;;1.52;0.70;;;8.10;99.90;;;;;;5130724;27;20416;-74
2021/12/30 01:25:40;;;;;;;1.92;1.00;;;8.20;99.90;;;;;;5129705;27;20033;-74
2021/12/30 01:28:05;;;;;;;2.03;0.70;;;8.10;99.90;;;;;;5128545;27;20437;-74
2021/12/30 01:30:31;;;;;;;1.77;0.80;;;8.10;99.90;;;;;;5108242;27;20042;-74
2021/12/30 01:32:57;;;;;;;4.13;1.80;;;8.00;99.90;;;;;;5130813;27;20075;-74
2021/12/30 01:35:25;;;;;;;6.50;3.35;;;7.70;99.90;;;;;;5111402;27;20071;-74
2021/12/30 01:37:53;;;;;;;5.95;2.22;;;7.30;99.90;;;;;;5129434;27;20023;-74
2021/12/30 01:40:20;;;;;;;4.53;1.77;;;7.20;99.90;;;;;;5126755;27;20030;-74
2021/12/30 01:42:46;;;;;;;3.88;1.98;;;7.10;99.90;;;;;;5129764;27;20034;-74
2021/12/30 01:45:12;;;;;;;4.50;1.80;;;6.90;99.90;;;;;;5128981;27;20031;-74
2021/12/30 01:47:45;;;;;;;2.17;1.08;;;6.90;99.90;;;;;;5129305;27;20026;-74
2021/12/30 01:50:11;;;;;;;3.28;0.88;;;6.90;99.90;;;;;;5128863;27;20034;-74
2021/12/30 01:52:37;;;;;;;1.60;0.60;;;6.90;99.90;;;;;;5128842;27;20039;-74
2021/12/30 01:55:03;;;;;;;4.15;1.77;;;7.30;99.90;;;;;;5128863;27;20019;-74
2021/12/30 01:57:28;;;;;;;5.65;1.50;;;7.10;99.90;;;;;;5128767;27;20019;-74
2021/12/30 01:59:54;;;;;;;3.75;1.67;;;7.00;99.90;;;;;;5130353;27;20608;-74
2021/12/30 02:02:20;;;;;;;2.80;1.40;;;6.90;99.90;;;;;;5125728;27;20104;-74
2021/12/30 02:04:46;;;;;;;2.80;1.02;;;6.70;99.90;;;;;;5129632;27;20035;-74
2021/12/30 02:07:13;;;;;;;3.65;1.35;;;7.00;99.90;;;;;;5130731;27;20024;-74
2021/12/30 02:09:39;;;;;;;2.65;1.10;;;7.10;99.90;;;;;;5128771;27;20069;-74
2021/12/30 02:12:06;;;;;;;3.80;1.65;;;6.90;99.90;;;;;;5127839;27;20469;-74
2021/12/30 02:14:33;;;;;;;4.05;1.65;;;6.90;99.90;;;;;;5127165;27;20038;-74
2021/12/30 02:17:00;;;;;;;2.88;1.13;;;6.90;99.90;;;;;;5134459;27;20031;-73
2021/12/30 02:19:25;;;;;;;3.08;1.30;;;6.90;99.90;;;;;;5132581;27;20076;-74
2021/12/30 02:21:51;;;;;;;3.22;1.58;;;6.90;99.90;;;;;;5132502;27;20023;-74
2021/12/30 02:24:17;;;;;;;2.47;0.95;;;6.80;99.90;;;;;;5132745;27;20038;-74
2021/12/30 02:26:42;;;;;;;1.15;0.70;;;6.70;99.90;;;;;;5131731;27;20060;-74
2021/12/30 02:29:08;;;;;;;1.35;0.70;;;7.00;99.90;;;;;;5122859;27;20039;-74
2021/12/30 02:31:34;;;;;;;2.92;0.80;;;6.90;99.90;;;;;;5115222;27;20402;-74
2021/12/30 02:34:00;;;;;;;2.28;1.05;;;6.90;99.90;;;;;;5121164;27;20027;-74
2021/12/30 02:36:32;;;;;;;1.95;0.82;;;6.80;99.90;;;;;;5122181;27;20024;-74
2021/12/30 02:38:59;;;;;;;1.90;0.65;;;6.90;99.90;;;;;;5131013;27;20027;-74
2021/12/30 02:41:27;;;;;;;2.55;0.82;;;6.80;99.90;;;;;;5133955;27;20023;-74
2021/12/30 02:43:54;;;;;;;1.40;0.43;;;6.60;99.90;;;;;;5131835;27;20042;-74
2021/12/30 02:46:26;;;;;;;1.10;0.70;;;6.60;99.90;;;;;;5134097;27;20032;-74
2021/12/30 02:48:52;;;;;;;1.33;0.60;;;6.70;99.90;;;;;;5129986;27;20553;-74
2021/12/30 02:51:20;;;;;;;1.67;0.60;;;6.70;99.90;;;;;;5131443;27;20046;-74
2021/12/30 02:53:47;;;;;;;2.22;1.08;;;6.80;99.90;;;;;;5131779;27;20109;-74
2021/12/30 02:56:12;;;;;;;2.05;1.17;;;6.80;99.90;;;;;;5132054;27;20039;-74
2021/12/30 02:58:38;;;;;;;2.45;1.17;;;6.90;99.90;;;;;;5113598;27;20023;-74
2021/12/30 03:01:29;;;;;;;3.50;1.00;;;7.00;99.90;;;;;;5133163;27;20084;-74
2021/12/30 03:03:55;;;;;;;2.05;0.93;;;7.10;99.90;;;;;;5133170;27;20052;-74
2021/12/30 03:06:22;;;;;;;2.25;0.98;;;7.10;99.90;;;;;;5113037;28;20030;-74
2021/12/30 03:08:49;;;;;;;3.55;1.00;;;7.00;99.90;;;;;;5129449;27;20031;-74
2021/12/30 03:11:16;;;;;;;3.72;1.15;;;6.90;99.90;;;;;;5132791;27;20401;-74
2021/12/30 03:13:44;;;;;;;3.30;1.20;;;6.90;99.90;;;;;;5133212;27;20027;-74
2021/12/30 03:16:16;;;;;;;4.10;1.13;;;6.70;99.90;;;;;;5131978;27;20160;-74
2021/12/30 03:18:44;;;;;;;3.28;1.55;;;6.50;99.90;;;;;;5131340;27;20525;-74
2021/12/30 03:21:12;;;;;;;2.17;1.08;;;6.70;99.90;;;;;;5132836;27;20031;-74
2021/12/30 03:23:37;;;;;;;2.88;1.30;;;6.70;99.90;;;;;;5132778;27;20035;-74
2021/12/30 03:26:05;;;;;;;1.80;0.95;;;6.80;99.90;;;;;;5131002;27;20388;-74
2021/12/30 03:28:31;;;;;;;2.88;1.23;;;6.80;99.90;;;;;;5131329;27;20030;-74
2021/12/30 03:30:58;;;;;;;1.83;0.88;;;6.70;99.90;;;;;;5132475;27;20027;-73
2021/12/30 03:33:25;;;;;;;2.10;0.93;;;6.80;99.90;;;;;;5131976;27;20481;-73
2021/12/30 03:35:51;;;;;;;1.02;0.45;;;6.60;99.90;;;;;;5129857;27;20477;-74
2021/12/30 03:38:17;;;;;;;1.60;0.63;;;6.40;99.90;;;;;;5128605;27;20023;-73
2021/12/30 03:40:43;;;;;;;1.77;0.70;;;6.40;99.90;;;;;;5131287;27;20506;-73
2021/12/30 03:43:09;;;;;;;1.67;0.88;;;6.40;99.90;;;;;;5131314;27;20055;-73
2021/12/30 03:45:34;;;;;;;1.00;0.60;;;6.40;99.90;;;;;;5131572;27;20027;-74
2021/12/30 03:48:01;;;;;;;2.13;1.20;;;6.30;99.90;;;;;;5131444;27;20036;-74
2021/12/30 03:50:29;;;;;;;3.63;0.80;;;6.20;99.90;;;;;;5129404;27;20032;-74
2021/12/30 03:53:02;;;;;;;2.75;0.93;;;6.10;99.90;;;;;;5132556;27;20035;-74
2021/12/30 03:55:30;;;;;;;1.90;0.90;;;6.40;99.90;;;;;;5131261;27;20027;-74
2021/12/30 03:57:56;;;;;;;2.90;1.05;;;6.40;99.90;;;;;;5132414;27;20099;-73
2021/12/30 04:00:24;;;;;;;2.47;1.00;;;6.40;99.90;;;;;;5129454;27;20114;-72
2021/12/30 04:02:50;;;;;;;2.40;1.00;;;6.50;99.90;;;;;;5119043;27;20111;-72
2021/12/30 04:05:17;;;;;;;2.70;0.82;;;6.60;99.90;;;;;;5121177;27;20212;-72
2021/12/30 04:07:43;;;;;;;3.05;1.27;;;6.40;99.90;;;;;;5123511;27;20035;-72
2021/12/30 04:10:12;;;;;;;2.95;1.35;;;6.70;99.90;;;;;;5120460;27;20065;-72
2021/12/30 04:12:39;;;;;;;2.78;1.13;;;6.90;99.90;;;;;;5123174;27;20383;-72
2021/12/30 04:15:06;;;;;;;3.13;1.35;;;6.90;99.90;;;;;;5120389;27;20445;-72
2021/12/30 04:17:31;;;;;;;2.30;1.10;;;6.80;99.90;;;;;;5122256;27;20027;-72
2021/12/30 04:19:57;;;;;;;1.63;0.77;;;6.90;99.90;;;;;;5121804;27;20027;-72
2021/12/30 04:22:23;;;;;;;0.85;0.60;;;6.70;99.90;;;;;;5123185;27;20031;-72
2021/12/30 04:24:50;;;;;;;3.10;1.23;;;6.40;99.90;;;;;;5118513;27;20035;-73
2021/12/30 04:27:16;;;;;;;2.10;0.82;;;6.50;99.90;;;;;;5112630;27;20070;-72
2021/12/30 04:29:42;;;;;;;2.58;1.23;;;6.50;99.90;;;;;;5125976;27;20031;-73
2021/12/30 04:32:09;;;;;;;1.88;1.02;;;6.30;99.90;;;;;;5127392;27;20023;-72
2021/12/30 04:34:35;;;;;;;4.28;0.77;;;6.30;99.90;;;;;;5126184;28;20051;-73
2021/12/30 04:37:00;;;;;;;1.42;0.60;;;6.20;99.90;;;;;;5127311;28;20433;-72
2021/12/30 04:39:28;;;;;;;2.85;1.45;;;6.10;99.90;;;;;;5125902;28;20028;-72
2021/12/30 04:41:54;;;;;;;3.15;1.65;;;6.30;99.90;;;;;;5125650;28;20403;-72
2021/12/30 04:44:20;;;;;;;2.55;1.00;;;6.20;99.90;;;;;;5130579;27;20034;-72
2021/12/30 04:46:45;;;;;;;2.90;1.08;;;6.30;99.90;;;;;;5130012;27;20098;-72
2021/12/30 04:49:11;;;;;;;1.95;0.98;;;6.20;99.90;;;;;;5130072;27;20031;-73
2021/12/30 04:51:37;;;;;;;1.83;1.00;;;6.00;99.90;;;;;;5130811;27;20031;-72
2021/12/30 04:54:03;;;;;;;6.40;1.73;;;6.10;99.90;;;;;;5131339;27;20102;-72
2021/12/30 04:56:29;;;;;;;2.13;0.95;;;6.00;99.90;;;;;;5129413;27;20027;-73
2021/12/30 04:58:54;;;;;;;4.45;1.20;;;5.80;99.90;;;;;;5109097;27;20496;-73
2021/12/30 05:01:20;;;;;;;1.88;0.82;;;5.80;99.90;;;;;;5125257;27;20030;-73
2021/12/30 05:03:46;;;;;;;2.05;0.80;;;5.80;99.90;;;;;;5128431;27;20043;-72
2021/12/30 05:06:12;;;;;;;3.15;1.13;;;5.80;99.90;;;;;;5126689;27;20538;-73
2021/12/30 05:08:38;;;;;;;3.85;1.38;;;5.70;99.90;;;;;;5128221;27;20023;-73
2021/12/30 05:11:05;;;;;;;2.35;0.93;;;5.80;99.90;;;;;;5126043;27;20381;-72
2021/12/30 05:13:31;;;;;;;4.20;1.38;;;6.00;99.90;;;;;;5128201;27;20027;-73
2021/12/30 05:15:57;;;;;;;1.83;1.00;;;6.00;99.90;;;;;;5124992;27;20473;-72
2021/12/30 05:18:31;;;;;;;2.85;1.00;;;5.80;99.90;;;;;;5128103;27;20031;-73
2021/12/30 05:21:02;;;;;;;3.85;1.00;;;5.70;99.90;;;;;;5126377;27;20038;-73
2021/12/30 05:23:29;;;;;;;1.90;1.10;;;5.70;99.90;;;;;;5127570;27;20042;-73
2021/12/30 05:25:55;;;;;;;3.90;1.40;;;5.60;99.90;;;;;;5127475;27;20622;-73
2021/12/30 05:28:21;;;;;;;2.22;1.08;;;5.70;99.90;;;;;;5126754;27;20050;-72
2021/12/30 05:30:47;;;;;;;2.03;0.98;;;5.80;99.90;;;;;;5125817;27;20504;-72
2021/12/30 05:33:13;;;;;;;2.00;0.98;;;5.50;99.90;;;;;;5127583;27;20034;-72
2021/12/30 05:35:38;;;;;;;1.67;0.75;;;5.50;99.90;;;;;;5125368;27;20023;-73
2021/12/30 05:38:05;;;;;;;1.75;0.93;;;5.60;99.90;;;;;;5123773;27;20421;-73
2021/12/30 05:40:32;;;;;;;2.42;1.13;;;5.60;99.90;;;;;;5124872;27;20054;-73
2021/12/30 05:42:57;;;;;;;2.33;1.13;;;5.40;99.90;;;;;;5123886;27;20027;-72
2021/12/30 05:45:23;;;;;;;4.03;1.83;;;5.40;99.90;;;;;;5125208;27;20051;-72
2021/12/30 05:47:51;;;;;;;2.65;1.23;;;5.50;99.90;;;;;;5127688;27;20103;-72
2021/12/30 05:50:22;;;;;;;2.00;0.95;;;5.50;99.90;;;;;;5126319;27;20042;-72
2021/12/30 05:52:49;;;;;;;2.65;1.33;;;5.40;99.90;;;;;;5125489;27;20027;-73
2021/12/30 05:55:15;;;;;;;2.40;0.95;;;5.50;99.90;;;;;;5123759;27;20034;-73
2021/12/30 05:57:42;;;;;;;3.10;1.30;;;5.40;99.90;;;;;;5127718;27;20030;-73
2021/12/30 06:00:11;;;;;;;2.53;1.27;;;5.40;99.90;;;;;;5121491;27;20084;-73
2021/12/30 06:02:37;;;;;;;2.15;0.98;;;5.60;99.90;;;;;;5107323;28;20023;-73
2021/12/30 06:05:04;;;;;;;4.50;1.95;;;5.80;99.90;;;;;;5118778;27;20062;-73
2021/12/30 06:07:29;;;;;;;2.42;1.08;;;5.50;99.90;;;;;;5124826;27;20096;-72
2021/12/30 06:09:55;;;;;;;2.90;1.20;;;5.50;99.90;;;;;;5123814;27;20477;-73
2021/12/30 06:12:22;;;;;;;2.90;1.38;;;5.40;99.90;;;;;;5126227;27;20072;-73
2021/12/30 06:14:48;;;;;;;2.47;1.30;;;5.40;99.90;;;;;;5126455;27;20524;-73
2021/12/30 06:17:15;;;;;;;2.40;1.20;;;5.40;99.90;;;;;;5124964;27;20023;-72
2021/12/30 06:19:45;;;;;;;3.28;1.42;;;5.40;99.90;;;;;;5124637;27;20045;-73
2021/12/30 06:22:12;;;;;;;2.35;1.13;;;5.50;99.90;;;;;;5125691;27;20031;-73
2021/12/30 06:24:38;;;;;;;2.88;1.40;;;5.40;99.90;;;;;;5106561;27;20057;-72
2021/12/30 06:27:05;;;;;;;2.55;1.20;;;5.40;99.90;;;;;;5118367;27;20406;-72
2021/12/30 06:29:30;;;;;;;1.98;1.08;;;5.50;99.90;;;;;;5125192;27;20015;-72
2021/12/30 06:31:56;;;;;;;3.30;1.40;;;5.60;99.90;;;;;;5125752;27;20069;-73
2021/12/30 06:34:22;;;;;;;6.35;1.85;;;5.70;99.90;;;;;;5126598;27;20026;-72
2021/12/30 06:36:48;;;;;;;2.33;1.33;;;5.90;99.90;;;;;;5126191;27;20062;-72
2021/12/30 06:39:14;;;;;;;3.15;1.33;;;5.90;99.90;;;;;;5106530;27;20403;-72
2021/12/30 06:41:39;;;;;;;2.42;1.08;;;5.70;99.90;;;;;;5125084;27;20026;-72
2021/12/30 06:44:05;;;;;;;3.35;1.55;;;5.40;99.90;;;;;;5124595;27;20082;-72
2021/12/30 06:46:31;;;;;;;2.00;1.10;;;5.50;99.90;;;;;;5125542;27;20038;-73
2021/12/30 06:48:57;;;;;;;2.38;1.17;;;5.60;99.90;;;;;;5126023;27;20035;-73
2021/12/30 06:51:26;;;;;;;1.98;1.20;;;5.50;99.90;;;;;;5123212;27;20130;-72
2021/12/30 06:53:54;;;;;;;3.28;1.63;;;5.60;99.90;;;;;;5123530;27;20027;-72
2021/12/30 06:56:24;;;;;;;2.67;1.23;;;5.70;99.90;;;;;;5124748;27;20035;-72
2021/12/30 06:58:50;;;;;;;5.13;1.50;;;5.50;99.90;;;;;;5124785;27;20468;-72
2021/12/30 07:01:16;;;;;;;4.35;1.42;;;5.80;99.90;;;;;;5124977;27;20068;-72
2021/12/30 07:03:42;;;;;;;6.05;2.85;;;5.80;99.90;;;;;;5117470;27;20043;-73
2021/12/30 07:06:08;;;;;;;5.82;2.45;;;5.70;99.90;;;;;;5118322;27;21058;-73
2021/12/30 07:08:33;;;;;;;3.78;1.33;;;5.70;99.90;;;;;;5120497;27;20035;-72
2021/12/30 07:10:59;;;;;;;2.42;1.13;;;5.60;99.90;;;;;;5124343;27;20055;-73
2021/12/30 07:13:25;;;;;;;2.83;1.15;;;5.60;99.90;;;;;;5124383;27;20438;-73
2021/12/30 07:15:50;;;;;;;3.03;1.30;;;5.70;99.90;;;;;;5125631;27;20023;-72
2021/12/30 07:18:16;;;;;;;1.98;1.05;;;5.70;99.90;;;;;;5125290;27;20027;-73
2021/12/30 07:20:42;;;;;;;2.25;1.20;;;5.70;99.90;;;;;;5125769;27;20031;-73
2021/12/30 07:23:08;;;;;;;2.90;1.67;;;5.60;99.90;;;;;;5125261;27;20031;-72
2021/12/30 07:25:34;;;;;;;2.28;1.20;;;5.50;99.90;;;;;;5119919;27;20089;-72
2021/12/30 07:28:01;;;;;;;1.77;0.98;;;5.50;99.90;;;;;;5124845;27;20038;-73
2021/12/30 07:30:27;;;;;;;3.83;1.23;;;5.50;99.90;;;;;;5125443;27;20022;-73
2021/12/30 07:32:53;;;;;;;3.55;1.35;;;5.50;99.90;;;;;;5125320;27;20027;-72
2021/12/30 07:35:20;;;;;;;6.75;2.10;;;5.40;99.90;;;;;;5122187;27;20023;-72
2021/12/30 07:37:47;;;;;;;4.80;2.03;;;5.50;99.90;;;;;;5125449;27;20144;-72
2021/12/30 07:40:13;;;;;;;6.45;1.98;;;5.60;99.90;;;;;;5124717;27;20119;-72
2021/12/30 07:42:39;;;;;;;5.93;1.70;;;5.50;99.90;;;;;;5124889;27;20031;-73
2021/12/30 07:45:06;;;;;;;4.85;1.88;;;5.40;99.90;;;;;;5123248;27;20429;-73
2021/12/30 07:47:31;;;;;;;3.78;1.50;;;5.40;99.90;;;;;;5123035;27;20023;-73
2021/12/30 07:49:57;;;;;;;2.78;1.10;;;5.50;99.90;;;;;;5123822;27;20377;-73
2021/12/30 07:52:23;;;;;;;3.15;1.08;;;5.70;99.90;;;;;;5123926;27;20031;-72
2021/12/30 07:54:49;;;;;;;1.65;0.90;;;5.80;99.90;;;;;;5123267;27;20388;-72
2021/12/30 07:57:21;;;;;;;2.80;1.13;;;5.70;99.90;;;;;;5123249;27;20027;-73
2021/12/30 07:59:50;;;;;;;2.90;1.08;;;5.60;99.90;;;;;;5122115;27;20027;-73
2021/12/30 08:02:17;;;;;;;2.17;1.02;;;5.40;99.90;;;;;;5123413;27;20058;-72
2021/12/30 08:04:42;;;;;;;2.58;1.20;;;5.50;99.90;;;;;;5121978;27;20034;-73
2021/12/30 08:07:08;;;;;;;1.83;0.93;;;5.60;99.90;;;;;;5124041;27;20083;-73
2021/12/30 08:09:34;;;;;;;7.63;2.80;;;5.50;99.90;;;;;;5121906;27;20081;-72
2021/12/30 08:12:00;;;;;;;4.93;2.53;;;5.60;99.90;;;;;;5109736;27;20597;-72
2021/12/30 08:14:27;;;;;;;2.92;1.65;;;5.80;99.90;;;;;;5124355;27;20526;-72
2021/12/30 08:16:52;;;;;;;6.55;3.10;;;5.80;99.90;;;;;;5121705;27;20632;-73
2021/12/30 08:19:18;;;;;;;4.60;2.70;;;5.40;99.90;;;;;;5103660;28;20107;-73
2021/12/30 08:21:44;;;;;;;5.53;3.10;;;5.30;99.90;;;;;;5121457;27;20046;-72
2021/12/30 08:24:11;;;;;;;7.00;3.42;;;5.30;99.90;;;;;;5120939;27;20500;-72
2021/12/30 08:26:37;;;;;;;6.57;2.45;;;5.20;99.90;;;;;;5124679;27;20062;-72
2021/12/30 08:29:04;;;;;;;6.40;3.08;;;5.10;99.90;;;;;;5109564;27;20039;-73
2021/12/30 08:31:30;;;;;;;5.00;2.92;;;5.10;99.90;;;;;;5113356;27;20035;-73
2021/12/30 08:33:56;;;;;;;5.88;2.40;;;5.20;99.90;;;;;;5114625;27;20045;-73
2021/12/30 08:36:22;;;;;;;5.95;3.10;;;5.10;99.90;;;;;;5116890;28;20027;-73
2021/12/30 08:38:48;;;;;;;5.03;2.25;;;5.10;99.90;;;;;;5096819;28;20054;-72
2021/12/30 08:41:15;;;;;;;5.22;2.33;;;5.10;99.90;;;;;;5116426;28;20096;-73
2021/12/30 08:43:41;;;;;;;6.70;2.17;;;5.30;99.90;;;;;;5116804;28;20124;-72
2021/12/30 08:46:07;;;;;;;4.47;2.15;;;5.40;99.90;;;;;;5123596;28;20034;-72
2021/12/30 08:48:32;;;;;;;3.33;1.67;;;5.40;99.90;;;;;;5122838;28;20023;-73
2021/12/30 08:50:58;;;;;;;3.38;1.92;;;5.40;99.90;;;;;;5116865;28;20031;-72
2021/12/30 08:53:25;;;;;;;4.30;2.35;;;5.50;99.90;;;;;;5121806;28;20043;-73
2021/12/30 08:55:53;;;;;;;4.43;2.20;;;5.60;99.90;;;;;;5119990;28;20430;-73
2021/12/30 08:58:19;;;;;;;3.38;1.60;;;5.70;99.90;;;;;;5122085;28;20027;-72
2021/12/30 09:00:47;;;;;;;5.97;2.28;;;5.60;99.90;;;;;;5124239;28;20648;-73
2021/12/30 09:03:14;;;;;;;5.05;2.05;;;5.60;99.90;;;;;;5121142;28;20019;-73
2021/12/30 09:05:40;;;;;;;3.50;1.92;;;5.70;99.90;;;;;;5123280;28;20024;-73
2021/12/30 09:08:06;;;;;;;3.65;2.10;;;5.70;99.90;;;;;;5123256;28;20037;-73
2021/12/30 09:10:37;;;;;;;3.85;1.80;;;5.70;99.90;;;;;;5123086;28;20050;-73
2021/12/30 09:13:03;;;;;;;4.03;1.92;;;5.80;99.90;;;;;;5117866;28;20058;-72
2021/12/30 09:15:30;;;;;;;4.95;1.83;;;5.90;99.90;;;;;;5113342;28;20025;-73
2021/12/30 09:17:57;;;;;;;4.03;1.67;;;6.10;99.90;;;;;;5121335;28;20675;-73
2021/12/30 09:20:24;;;;;;;4.22;1.75;;;6.10;99.90;;;;;;5120493;28;20376;-72
2021/12/30 09:22:52;;;;;;;4.93;2.28;;;6.10;99.90;;;;;;5123338;28;20481;-73
2021/12/30 09:25:22;;;;;;;4.22;2.25;;;6.00;99.90;;;;;;5122355;28;20027;-73
2021/12/30 09:27:48;;;;;;;3.90;1.98;;;6.00;99.90;;;;;;5121880;28;20031;-73
2021/12/30 09:30:15;;;;;;;3.75;1.70;;;5.90;99.90;;;;;;5118572;27;20038;-72
2021/12/30 09:32:42;;;;;;;4.60;1.67;;;5.90;99.90;;;;;;5127662;27;20023;-73
2021/12/30 09:35:10;;;;;;;5.82;1.90;;;6.00;99.90;;;;;;5124778;27;20504;-72
2021/12/30 09:37:36;;;;;;;3.88;1.88;;;6.10;99.90;;;;;;5128008;27;20107;-73
2021/12/30 09:40:04;;;;;;;3.05;1.77;;;6.10;99.90;;;;;;5124484;27;20608;-72
2021/12/30 09:42:30;;;;;;;3.45;1.95;;;6.20;99.90;;;;;;5127458;27;20019;-73
2021/12/30 09:44:56;;;;;;;3.97;1.48;;;6.30;99.90;;;;;;5126095;27;20049;-73
2021/12/30 09:47:22;;;;;;;3.85;1.45;;;6.40;99.90;;;;;;5125794;27;20116;-73
2021/12/30 09:49:50;;;;;;;3.25;1.50;;;6.50;99.90;;;;;;5124601;27;20030;-72
2021/12/30 09:52:18;;;;;;;3.67;1.50;;;6.50;99.90;;;;;;5124939;27;20520;-73
2021/12/30 09:54:43;;;;;;;3.30;1.50;;;6.40;99.90;;;;;;5125618;27;20035;-73
2021/12/30 09:57:09;;;;;;;3.47;1.67;;;6.50;99.90;;;;;;5105570;27;20053;-73
2021/12/30 09:59:35;;;;;;;3.35;1.65;;;6.50;99.90;;;;;;5127613;27;20377;-73
2021/12/30 10:02:01;;;;;;;3.65;1.83;;;6.50;99.90;;;;;;5125290;27;20034;-73
2021/12/30 10:04:33;;;;;;;3.88;1.67;;;6.50;99.90;;;;;;5125556;27;20047;-73
2021/12/30 10:07:00;;;;;;;3.03;1.58;;;6.50;99.90;;;;;;5121954;27;20080;-72
2021/12/30 10:09:49;;;;;;;2.10;1.40;;;6.60;99.90;;;;;;5125008;27;20109;-73
2021/12/30 10:12:15;;;;;;;2.85;1.70;;;6.70;99.90;;;;;;5109684;27;20035;-72
2021/12/30 10:14:41;;;;;;;3.20;1.77;;;6.70;99.90;;;;;;5125645;27;20023;-73
2021/12/30 10:17:14;;;;;;;7.78;3.85;;;6.60;99.90;;;;;;5126257;27;20496;-72
2021/12/30 10:19:40;;;;;;;5.95;3.60;;;6.40;99.90;;;;;;5126034;27;20039;-73
2021/12/30 10:22:17;;;;;;;5.55;3.30;;;6.40;99.90;;;;;;5125436;27;20034;-73
2021/12/30 10:24:43;;;;;;;5.97;2.97;;;6.30;99.90;;;;;;5120585;27;20032;-73
2021/12/30 10:27:09;;;;;;;5.43;2.58;;;6.30;99.90;;;;;;5125495;27;20019;-72
2021/12/30 10:29:47;;;;;;;5.22;2.70;;;6.30;99.90;;;;;;5126733;27;20057;-72
2021/12/30 10:32:17;;;;;;;5.88;3.50;;;6.20;99.90;;;;;;5117821;27;20034;-72
2021/12/30 10:35:11;;;;;;;6.40;3.80;;;6.20;99.90;;;;;;5123187;27;20027;-73
2021/12/30 10:37:42;;;;;;;4.93;2.72;;;6.20;99.90;;;;;;5123118;27;20552;-72
2021/12/30 10:40:54;;;;;;;5.35;2.47;;;6.40;99.90;;;;;;5123530;27;20030;-73
2021/12/30 10:46:11;;;;;;;4.75;2.13;;;6.70;99.90;;;;;;5106107;28;20057;-72
2021/12/30 10:48:51;;;;;;;3.40;1.83;;;6.80;99.90;;;;;;5106264;28;20027;-72
2021/12/30 10:51:26;;;;;;;9.35;4.65;;;6.80;99.90;;;;;;5106237;28;20035;-73
2021/12/30 10:53:53;;;;;;;10.93;7.05;;;6.70;99.90;;;;;;5118253;27;20020;-73
2021/12/30 10:56:30;;;;;;;9.57;5.03;;;6.80;99.90;;;;;;5126289;27;20068;-72
2021/12/30 10:59:18;;;;;;;8.57;5.13;;;6.90;99.90;;;;;;5126305;27;20048;-73
2021/12/30 11:02:00;;;;;;;10.57;6.25;;;7.00;99.90;;;;;;5109843;27;20027;-73
2021/12/30 11:04:47;;;;;;;9.45;5.57;;;7.10;99.90;;;;;;5125394;27;20039;-72
2021/12/30 11:07:20;;;;;;;7.80;5.28;;;7.20;99.90;;;;;;5125869;27;20465;-72
2021/12/30 11:09:50;;;;;;;16.05;8.88;;;7.30;99.90;;;;;;5125853;27;20027;-72
2021/12/30 11:12:23;;;;;;;11.85;6.55;;;7.40;99.90;;;;;;5126025;27;20057;-73
2021/12/30 11:14:49;;;;;;;14.98;8.60;;;7.40;99.90;;;;;;5125045;27;20178;-72
2021/12/30 11:17:21;;;;;;;13.52;7.70;;;7.50;99.90;;;;;;5107416;27;20019;-72
2021/12/30 11:19:59;;;;;;;9.63;5.05;;;7.50;99.90;;;;;;5129770;27;20120;-72
2021/12/30 11:22:29;;;;;;;8.02;5.28;;;7.60;99.90;;;;;;5125865;27;20072;-72
2021/12/30 11:24:59;;;;;;;8.93;5.65;;;7.70;99.90;;;;;;5127783;27;20114;-73
2021/12/30 11:27:27;;;;;;;12.48;7.68;;;7.80;99.90;;;;;;5128500;27;20038;-72
2021/12/30 11:29:56;;;;;;;13.57;12.18;;;7.70;99.90;;;;;;5128739;27;20023;-72
2021/12/30 11:32:28;;;;;;;16.73;12.23;;;7.80;99.90;;;;;;5128624;27;20023;-72
2021/12/30 11:34:55;;;;;;;303.80;165.70;;;7.80;99.90;;;;;;5126523;27;20028;-72
2021/12/30 11:37:22;;;;;;;96.03;54.05;;;7.90;99.90;;;;;;5126000;27;20058;-73
2021/12/30 11:39:53;;;;;;;127.20;65.93;;;8.00;99.90;;;;;;5125300;27;20011;-73
2021/12/30 11:42:27;;;;;;;407.17;214.82;;;8.10;99.90;;;;;;5128141;27;20034;-73
2021/12/30 11:44:58;;;;;;;;;;;8.20;99.90;;;;;;5125245;27;20043;-73
2021/12/30 11:47:36;;;;;;;89.43;47.88;;;8.20;99.90;;;;;;5124841;27;19914;-73
2021/12/30 11:50:02;;;;;;;26.60;15.38;;;8.40;99.90;;;;;;5120225;27;20030;-73
2021/12/30 11:53:02;;;;;;;14.70;7.85;;;8.40;99.90;;;;;;5125246;27;20027;-73
2021/12/30 11:55:45;;;;;;;12.45;6.35;;;8.50;99.90;;;;;;5107551;27;20069;-73
2021/12/30 11:58:29;;;;;;;10.43;5.28;;;8.50;99.90;;;;;;5104772;28;20027;-73
2021/12/30 12:00:58;;;;;;;10.47;6.03;;;8.40;99.90;;;;;;5118045;27;20023;-73
2021/12/30 12:03:35;;;;;;;7.72;4.43;;;8.50;99.90;;;;;;5124691;27;20099;-73
2021/12/30 12:06:25;;;;;;;8.23;5.75;;;8.60;99.90;;;;;;5124952;27;20031;-72
2021/12/30 12:09:12;;;;;;;7.20;4.53;;;8.60;99.90;;;;;;5124312;27;20633;-73
2021/12/30 12:11:41;;;;;;;12.20;7.20;;;8.60;99.90;;;;;;5124134;27;20170;-72
2021/12/30 12:14:30;;;;;;;9.25;5.88;;;8.60;99.90;;;;;;5123712;27;20027;-72
2021/12/30 12:17:01;;;;;;;8.60;5.55;;;8.60;99.90;;;;;;5120846;27;20583;-73
2021/12/30 12:19:34;;;;;;;13.00;7.03;;;8.70;99.90;;;;;;5104899;27;20114;-72
2021/12/30 12:22:02;;;;;;;7.97;5.30;;;8.70;99.90;;;;;;5123702;27;20034;-73
2021/12/30 12:24:32;;;;;;;10.50;5.65;;;8.70;99.90;;;;;;5124317;27;20038;-72
2021/12/30 12:27:05;;;;;;;7.72;5.20;;;8.70;99.90;;;;;;5124520;27;20019;-72
2021/12/30 12:29:42;;;;;;;7.88;5.45;;;8.80;99.90;;;;;;5123345;27;20500;-73
2021/12/30 12:32:14;;;;;;;7.35;4.50;;;8.80;99.90;;;;;;5125094;27;20537;-72
2021/12/30 12:34:50;;;;;;;8.80;5.55;;;8.90;99.90;;;;;;5124352;27;20098;-73
2021/12/30 12:37:47;;;;;;;8.88;5.32;;;8.90;99.90;;;;;;5123572;28;20028;-73
2021/12/30 12:40:16;;;;;;;8.38;4.72;;;8.90;99.90;;;;;;5096555;28;20058;-72
2021/12/30 12:42:50;;;;;;;15.07;8.40;;;8.80;99.90;;;;;;5124385;28;20035;-72
2021/12/30 12:45:50;;;;;;;8.65;5.65;;;8.90;99.90;;;;;;5123848;28;20031;-73
2021/12/30 12:48:20;;;;;;;9.50;5.90;;;8.90;99.90;;;;;;5124784;28;20410;-72
2021/12/30 12:50:48;;;;;;;25.55;15.40;;;8.80;99.90;;;;;;5124056;28;20023;-73
2021/12/30 12:53:24;;;;;;;17.30;11.65;;;8.80;99.90;;;;;;5124098;28;20083;-72
2021/12/30 12:56:03;;;;;;;37.65;25.50;;;8.80;99.90;;;;;;5124403;28;20019;-72
2021/12/30 12:58:33;;;;;;;20.10;13.38;;;8.90;99.90;;;;;;5123724;28;20111;-73
2021/12/30 13:01:00;;;;;;;10.60;6.88;;;8.90;99.90;;;;;;5123537;28;20629;-72
2021/12/30 13:03:26;;;;;;;9.25;5.15;;;8.90;99.90;;;;;;5124217;27;20034;-73
2021/12/30 13:06:00;;;;;;;11.30;5.07;;;8.90;99.90;;;;;;5127428;27;20037;-73
2021/12/30 13:08:27;;;;;;;9.48;4.60;;;8.80;99.90;;;;;;5128318;27;20027;-72